sensor_id;sensor_type;location;lat;lon;timestamp;pressure;altitude;pressure_sealevel;temperature;humidity
61814;BME280;57055;-35.296;149.168;2023-02-11T00:01:36;94262.28;;;23.17;41.92
61814;BME280;57055;-35.296;149.168;2023-02-11T00:04:06;94256.43;;;23.31;42.68
61814;BME280;57055;-35.296;149.168;2023-02-11T00:06:35;94255.13;;;23.30;42.23
61814;BME280;57055;-35.296;149.168;2023-02-11T00:09:05;94253.20;;;23.24;41.58
61814;BME280;57055;-35.296;149.168;2023-02-11T00:11:34;94245.14;;;23.67;41.13
61814;BME280;57055;-35.296;149.168;2023-02-11T00:14:05;94237.99;;;23.74;40.51
61814;BME280;57055;-35.296;149.168;2023-02-11T00:16:34;94236.52;;;23.66;39.90
61814;BME280;57055;-35.296;149.168;2023-02-11T00:19:04;94233.45;;;23.66;40.64
61814;BME280;57055;-35.296;149.168;2023-02-11T00:21:34;94227.78;;;24.00;40.57
61814;BME280;57055;-35.296;149.168;2023-02-11T00:24:03;94228.25;;;23.85;40.10
61814;BME280;57055;-35.296;149.168;2023-02-11T00:26:34;94224.59;;;24.22;39.83
61814;BME280;57055;-35.296;149.168;2023-02-11T00:29:03;94221.00;;;23.89;40.55
61814;BME280;57055;-35.296;149.168;2023-02-11T00:31:32;94211.23;;;24.02;40.23
61814;BME280;57055;-35.296;149.168;2023-02-11T00:34:01;94207.17;;;23.94;38.77
61814;BME280;57055;-35.296;149.168;2023-02-11T00:36:30;94212.75;;;24.25;38.99
61814;BME280;57055;-35.296;149.168;2023-02-11T00:38:59;94209.15;;;24.35;38.68
61814;BME280;57055;-35.296;149.168;2023-02-11T00:41:29;94204.21;;;24.65;38.65
61814;BME280;57055;-35.296;149.168;2023-02-11T00:43:58;94199.98;;;24.46;38.82
61814;BME280;57055;-35.296;149.168;2023-02-11T00:46:27;94205.39;;;24.62;38.57
61814;BME280;57055;-35.296;149.168;2023-02-11T00:48:57;94197.94;;;24.69;38.44
61814;BME280;57055;-35.296;149.168;2023-02-11T00:51:27;94191.43;;;24.67;38.60
61814;BME280;57055;-35.296;149.168;2023-02-11T00:53:56;94189.47;;;24.88;38.18
61814;BME280;57055;-35.296;149.168;2023-02-11T00:56:26;94191.25;;;25.09;37.43
61814;BME280;57055;-35.296;149.168;2023-02-11T00:58:56;94187.95;;;25.09;37.67
61814;BME280;57055;-35.296;149.168;2023-02-11T01:01:25;94185.67;;;25.34;37.86
61814;BME280;57055;-35.296;149.168;2023-02-11T01:03:54;94183.31;;;25.00;37.57
61814;BME280;57055;-35.296;149.168;2023-02-11T01:06:23;94170.81;;;25.12;37.31
61814;BME280;57055;-35.296;149.168;2023-02-11T01:08:52;94169.68;;;25.26;37.26
61814;BME280;57055;-35.296;149.168;2023-02-11T01:11:22;94162.98;;;25.13;37.37
61814;BME280;57055;-35.296;149.168;2023-02-11T01:13:51;94162.72;;;25.17;36.27
61814;BME280;57055;-35.296;149.168;2023-02-11T01:16:20;94163.28;;;25.32;35.81
61814;BME280;57055;-35.296;149.168;2023-02-11T01:18:49;94153.76;;;25.34;36.60
61814;BME280;57055;-35.296;149.168;2023-02-11T01:21:19;94154.59;;;25.63;35.73
61814;BME280;57055;-35.296;149.168;2023-02-11T01:23:48;94146.27;;;25.83;35.88
61814;BME280;57055;-35.296;149.168;2023-02-11T01:26:19;94145.21;;;26.05;36.51
61814;BME280;57055;-35.296;149.168;2023-02-11T01:28:48;94143.46;;;26.07;35.27
61814;BME280;57055;-35.296;149.168;2023-02-11T01:31:18;94143.72;;;26.07;35.19
61814;BME280;57055;-35.296;149.168;2023-02-11T01:33:52;94146.19;;;26.05;33.99
61814;BME280;57055;-35.296;149.168;2023-02-11T01:36:27;94130.63;;;26.32;33.99
61814;BME280;57055;-35.296;149.168;2023-02-11T01:38:56;94123.11;;;26.05;33.42
61814;BME280;57055;-35.296;149.168;2023-02-11T01:41:26;94121.27;;;26.35;34.81
61814;BME280;57055;-35.296;149.168;2023-02-11T01:43:55;94112.76;;;26.12;34.49
61814;BME280;57055;-35.296;149.168;2023-02-11T01:46:31;94105.96;;;26.29;37.43
61814;BME280;57055;-35.296;149.168;2023-02-11T01:49:05;94106.75;;;26.16;38.12
61814;BME280;57055;-35.296;149.168;2023-02-11T01:51:37;94097.54;;;26.05;42.28
61814;BME280;57055;-35.296;149.168;2023-02-11T01:54:12;94084.88;;;26.32;36.12
61814;BME280;57055;-35.296;149.168;2023-02-11T01:56:46;94091.80;;;25.95;37.71
61814;BME280;57055;-35.296;149.168;2023-02-11T01:59:21;94085.03;;;26.57;39.23
61814;BME280;57055;-35.296;149.168;2023-02-11T02:01:55;94073.12;;;26.20;37.18
61814;BME280;57055;-35.296;149.168;2023-02-11T02:04:30;94076.91;;;26.43;39.08
61814;BME280;57055;-35.296;149.168;2023-02-11T02:07:07;94070.32;;;26.70;37.24
61814;BME280;57055;-35.296;149.168;2023-02-11T02:09:43;94064.43;;;26.63;40.27
61814;BME280;57055;-35.296;149.168;2023-02-11T02:12:13;94051.81;;;26.28;38.45
61814;BME280;57055;-35.296;149.168;2023-02-11T02:14:43;94052.91;;;26.41;39.21
61814;BME280;57055;-35.296;149.168;2023-02-11T02:17:23;94035.01;;;26.12;39.26
61814;BME280;57055;-35.296;149.168;2023-02-11T02:20:26;94033.72;;;26.75;38.23
61814;BME280;57055;-35.296;149.168;2023-02-11T02:23:11;94025.40;;;26.67;40.21
61814;BME280;57055;-35.296;149.168;2023-02-11T02:25:57;94014.03;;;26.69;37.87
61814;BME280;57055;-35.296;149.168;2023-02-11T02:28:54;94023.25;;;26.34;36.85
61814;BME280;57055;-35.296;149.168;2023-02-11T02:31:39;94010.94;;;26.75;32.99
61814;BME280;57055;-35.296;149.168;2023-02-11T02:34:16;94005.93;;;27.04;36.51
61814;BME280;57055;-35.296;149.168;2023-02-11T02:36:54;93991.88;;;26.86;33.76
61814;BME280;57055;-35.296;149.168;2023-02-11T02:39:28;93997.36;;;26.85;34.55
61814;BME280;57055;-35.296;149.168;2023-02-11T02:41:58;94004.81;;;27.40;32.37
61814;BME280;57055;-35.296;149.168;2023-02-11T02:44:28;94007.28;;;27.38;30.38
61814;BME280;57055;-35.296;149.168;2023-02-11T02:46:57;94005.28;;;27.36;30.59
61814;BME280;57055;-35.296;149.168;2023-02-11T02:49:26;94004.87;;;27.26;31.18
61814;BME280;57055;-35.296;149.168;2023-02-11T02:52:07;93992.37;;;27.15;31.50
61814;BME280;57055;-35.296;149.168;2023-02-11T02:54:58;93998.41;;;27.38;31.38
61814;BME280;57055;-35.296;149.168;2023-02-11T02:57:41;93990.48;;;27.27;34.00
61814;BME280;57055;-35.296;149.168;2023-02-11T03:00:23;93985.71;;;27.63;36.53
61814;BME280;57055;-35.296;149.168;2023-02-11T03:03:09;93987.00;;;27.48;33.16
61814;BME280;57055;-35.296;149.168;2023-02-11T03:05:47;93985.57;;;27.47;33.95
61814;BME280;57055;-35.296;149.168;2023-02-11T03:08:26;93963.83;;;27.12;34.38
61814;BME280;57055;-35.296;149.168;2023-02-11T03:10:58;93965.42;;;27.52;32.68
61814;BME280;57055;-35.296;149.168;2023-02-11T03:13:32;93974.29;;;27.59;34.49
61814;BME280;57055;-35.296;149.168;2023-02-11T03:16:07;93972.14;;;27.59;33.45
61814;BME280;57055;-35.296;149.168;2023-02-11T03:18:37;93956.53;;;27.48;29.72
61814;BME280;57055;-35.296;149.168;2023-02-11T03:21:10;93948.33;;;28.10;33.47
61814;BME280;57055;-35.296;149.168;2023-02-11T03:23:43;93945.29;;;27.73;34.49
61814;BME280;57055;-35.296;149.168;2023-02-11T03:26:22;93934.97;;;27.70;33.71
61814;BME280;57055;-35.296;149.168;2023-02-11T03:28:56;93934.21;;;28.01;33.73
61814;BME280;57055;-35.296;149.168;2023-02-11T03:31:32;93923.18;;;27.79;31.44
61814;BME280;57055;-35.296;149.168;2023-02-11T03:34:08;93938.39;;;28.12;30.95
61814;BME280;57055;-35.296;149.168;2023-02-11T03:36:42;93928.79;;;28.17;31.43
61814;BME280;57055;-35.296;149.168;2023-02-11T03:39:15;93924.16;;;27.71;34.10
61814;BME280;57055;-35.296;149.168;2023-02-11T03:41:46;93918.17;;;27.79;33.12
61814;BME280;57055;-35.296;149.168;2023-02-11T03:44:17;93910.96;;;27.57;35.02
61814;BME280;57055;-35.296;149.168;2023-02-11T03:46:49;93910.80;;;27.36;32.23
61814;BME280;57055;-35.296;149.168;2023-02-11T03:49:21;93901.26;;;27.97;32.42
61814;BME280;57055;-35.296;149.168;2023-02-11T03:51:53;93898.44;;;28.06;28.84
61814;BME280;57055;-35.296;149.168;2023-02-11T03:54:27;93900.47;;;28.05;32.73
61814;BME280;57055;-35.296;149.168;2023-02-11T03:56:59;93901.31;;;27.53;32.82
61814;BME280;57055;-35.296;149.168;2023-02-11T03:59:29;93890.08;;;27.72;29.66
61814;BME280;57055;-35.296;149.168;2023-02-11T04:01:58;93885.51;;;27.88;29.99
61814;BME280;57055;-35.296;149.168;2023-02-11T04:04:27;93884.73;;;28.17;29.19
61814;BME280;57055;-35.296;149.168;2023-02-11T04:06:56;93882.71;;;28.00;32.07
61814;BME280;57055;-35.296;149.168;2023-02-11T04:09:26;93890.71;;;27.98;28.18
61814;BME280;57055;-35.296;149.168;2023-02-11T04:11:55;93886.46;;;28.16;32.52
61814;BME280;57055;-35.296;149.168;2023-02-11T04:14:24;93869.64;;;27.52;33.23
61814;BME280;57055;-35.296;149.168;2023-02-11T04:16:53;93867.12;;;27.52;32.23
61814;BME280;57055;-35.296;149.168;2023-02-11T04:19:22;93865.61;;;27.59;31.31
61814;BME280;57055;-35.296;149.168;2023-02-11T04:21:52;93856.01;;;27.76;30.23
61814;BME280;57055;-35.296;149.168;2023-02-11T04:24:21;93851.38;;;27.69;32.63
61814;BME280;57055;-35.296;149.168;2023-02-11T04:26:50;93854.47;;;27.80;30.16
61814;BME280;57055;-35.296;149.168;2023-02-11T04:29:20;93847.90;;;27.60;31.10
61814;BME280;57055;-35.296;149.168;2023-02-11T04:31:49;93860.41;;;27.67;32.21
61814;BME280;57055;-35.296;149.168;2023-02-11T04:34:18;93838.33;;;27.82;30.66
61814;BME280;57055;-35.296;149.168;2023-02-11T04:36:47;93830.05;;;27.95;32.15
61814;BME280;57055;-35.296;149.168;2023-02-11T04:39:16;93816.66;;;27.91;32.24
61814;BME280;57055;-35.296;149.168;2023-02-11T04:41:46;93832.04;;;27.98;32.38
61814;BME280;57055;-35.296;149.168;2023-02-11T04:44:15;93828.72;;;27.87;32.20
61814;BME280;57055;-35.296;149.168;2023-02-11T04:46:45;93830.85;;;28.10;28.27
61814;BME280;57055;-35.296;149.168;2023-02-11T04:49:14;93822.14;;;28.01;32.05
61814;BME280;57055;-35.296;149.168;2023-02-11T04:51:43;93815.33;;;28.27;32.09
61814;BME280;57055;-35.296;149.168;2023-02-11T04:54:13;93802.44;;;28.02;32.18
61814;BME280;57055;-35.296;149.168;2023-02-11T04:56:42;93810.61;;;28.23;29.39
61814;BME280;57055;-35.296;149.168;2023-02-11T04:59:11;93806.27;;;28.56;30.57
61814;BME280;57055;-35.296;149.168;2023-02-11T05:01:40;93799.03;;;28.31;31.02
61814;BME280;57055;-35.296;149.168;2023-02-11T05:04:09;93797.18;;;29.02;28.62
61814;BME280;57055;-35.296;149.168;2023-02-11T05:06:39;93803.30;;;29.13;30.66
61814;BME280;57055;-35.296;149.168;2023-02-11T05:09:09;93800.19;;;29.12;30.70
61814;BME280;57055;-35.296;149.168;2023-02-11T05:11:39;93809.17;;;28.77;29.32
61814;BME280;57055;-35.296;149.168;2023-02-11T05:14:08;93812.37;;;28.86;27.55
61814;BME280;57055;-35.296;149.168;2023-02-11T05:16:37;93789.92;;;29.08;29.22
61814;BME280;57055;-35.296;149.168;2023-02-11T05:19:06;93801.09;;;28.78;28.00
61814;BME280;57055;-35.296;149.168;2023-02-11T05:21:35;93790.60;;;29.01;25.55
61814;BME280;57055;-35.296;149.168;2023-02-11T05:24:05;93788.57;;;29.13;25.07
61814;BME280;57055;-35.296;149.168;2023-02-11T05:26:35;93782.96;;;29.21;23.67
61814;BME280;57055;-35.296;149.168;2023-02-11T05:29:04;93783.49;;;29.73;23.42
61814;BME280;57055;-35.296;149.168;2023-02-11T05:31:33;93785.68;;;29.72;24.53
61814;BME280;57055;-35.296;149.168;2023-02-11T05:34:02;93776.95;;;29.59;23.99
61814;BME280;57055;-35.296;149.168;2023-02-11T05:36:32;93773.72;;;29.34;24.78
61814;BME280;57055;-35.296;149.168;2023-02-11T05:39:00;93772.89;;;29.49;24.41
61814;BME280;57055;-35.296;149.168;2023-02-11T05:41:30;93774.30;;;29.40;24.93
61814;BME280;57055;-35.296;149.168;2023-02-11T05:43:59;93773.20;;;29.50;23.93
61814;BME280;57055;-35.296;149.168;2023-02-11T05:46:28;93778.78;;;29.57;24.67
61814;BME280;57055;-35.296;149.168;2023-02-11T05:48:57;93778.08;;;29.86;25.63
61814;BME280;57055;-35.296;149.168;2023-02-11T05:51:26;93778.17;;;29.56;24.96
61814;BME280;57055;-35.296;149.168;2023-02-11T05:53:56;93771.65;;;29.62;23.87
61814;BME280;57055;-35.296;149.168;2023-02-11T05:56:25;93768.96;;;29.69;24.66
61814;BME280;57055;-35.296;149.168;2023-02-11T05:58:54;93772.82;;;29.66;23.43
61814;BME280;57055;-35.296;149.168;2023-02-11T06:01:23;93769.62;;;29.89;24.46
61814;BME280;57055;-35.296;149.168;2023-02-11T06:03:52;93767.77;;;29.63;24.95
61814;BME280;57055;-35.296;149.168;2023-02-11T06:06:22;93765.89;;;29.37;24.15
61814;BME280;57055;-35.296;149.168;2023-02-11T06:08:51;93767.00;;;29.69;23.46
61814;BME280;57055;-35.296;149.168;2023-02-11T06:11:20;93761.73;;;29.61;23.09
61814;BME280;57055;-35.296;149.168;2023-02-11T06:13:49;93765.68;;;29.70;24.25
61814;BME280;57055;-35.296;149.168;2023-02-11T06:16:18;93766.12;;;29.62;24.87
61814;BME280;57055;-35.296;149.168;2023-02-11T06:18:48;93771.22;;;29.61;24.91
61814;BME280;57055;-35.296;149.168;2023-02-11T06:21:17;93767.70;;;29.67;23.45
61814;BME280;57055;-35.296;149.168;2023-02-11T06:23:46;93763.60;;;29.56;24.30
61814;BME280;57055;-35.296;149.168;2023-02-11T06:26:17;93761.34;;;29.58;23.51
61814;BME280;57055;-35.296;149.168;2023-02-11T06:28:47;93754.60;;;29.63;23.37
61814;BME280;57055;-35.296;149.168;2023-02-11T06:31:16;93762.62;;;29.53;23.40
61814;BME280;57055;-35.296;149.168;2023-02-11T06:33:45;93759.65;;;29.70;24.26
61814;BME280;57055;-35.296;149.168;2023-02-11T06:36:17;93751.78;;;29.27;24.43
61814;BME280;57055;-35.296;149.168;2023-02-11T06:38:48;93754.68;;;29.31;25.07
61814;BME280;57055;-35.296;149.168;2023-02-11T06:41:18;93760.47;;;29.23;26.06
61814;BME280;57055;-35.296;149.168;2023-02-11T06:43:47;93756.99;;;29.51;23.88
61814;BME280;57055;-35.296;149.168;2023-02-11T06:46:16;93754.82;;;29.22;23.83
61814;BME280;57055;-35.296;149.168;2023-02-11T06:48:46;93757.76;;;29.42;22.20
61814;BME280;57055;-35.296;149.168;2023-02-11T06:51:15;93758.91;;;29.57;22.62
61814;BME280;57055;-35.296;149.168;2023-02-11T06:53:45;93762.72;;;29.38;21.80
61814;BME280;57055;-35.296;149.168;2023-02-11T06:56:16;93759.05;;;29.51;21.91
61814;BME280;57055;-35.296;149.168;2023-02-11T06:58:46;93757.82;;;29.21;22.28
61814;BME280;57055;-35.296;149.168;2023-02-11T07:01:16;93768.24;;;28.97;21.99
61814;BME280;57055;-35.296;149.168;2023-02-11T07:03:45;93758.58;;;28.80;23.02
61814;BME280;57055;-35.296;149.168;2023-02-11T07:06:16;93766.62;;;29.07;22.50
61814;BME280;57055;-35.296;149.168;2023-02-11T07:08:46;93759.15;;;29.02;22.42
61814;BME280;57055;-35.296;149.168;2023-02-11T07:11:18;93765.41;;;29.20;21.69
61814;BME280;57055;-35.296;149.168;2023-02-11T07:13:47;93769.42;;;29.10;21.76
61814;BME280;57055;-35.296;149.168;2023-02-11T07:16:18;93762.55;;;28.61;21.82
61814;BME280;57055;-35.296;149.168;2023-02-11T07:18:48;93765.07;;;29.01;23.30
61814;BME280;57055;-35.296;149.168;2023-02-11T07:21:19;93764.93;;;28.69;22.21
61814;BME280;57055;-35.296;149.168;2023-02-11T07:23:48;93766.74;;;28.63;22.57
61814;BME280;57055;-35.296;149.168;2023-02-11T07:26:19;93766.18;;;28.48;22.83
61814;BME280;57055;-35.296;149.168;2023-02-11T07:28:49;93769.06;;;28.45;24.27
61814;BME280;57055;-35.296;149.168;2023-02-11T07:31:19;93770.89;;;28.45;23.16
61814;BME280;57055;-35.296;149.168;2023-02-11T07:33:49;93772.03;;;28.40;25.11
61814;BME280;57055;-35.296;149.168;2023-02-11T07:36:19;93766.78;;;28.20;22.92
61814;BME280;57055;-35.296;149.168;2023-02-11T07:38:49;93772.29;;;28.30;22.73
61814;BME280;57055;-35.296;149.168;2023-02-11T07:41:20;93769.30;;;28.23;23.87
61814;BME280;57055;-35.296;149.168;2023-02-11T07:43:50;93768.12;;;28.10;23.74
61814;BME280;57055;-35.296;149.168;2023-02-11T07:46:20;93766.62;;;28.21;24.59
61814;BME280;57055;-35.296;149.168;2023-02-11T07:48:50;93764.86;;;28.18;23.87
61814;BME280;57055;-35.296;149.168;2023-02-11T07:51:21;93764.94;;;27.71;27.50
61814;BME280;57055;-35.296;149.168;2023-02-11T07:53:50;93767.11;;;27.81;24.91
61814;BME280;57055;-35.296;149.168;2023-02-11T07:56:20;93764.13;;;27.79;24.49
61814;BME280;57055;-35.296;149.168;2023-02-11T07:58:50;93763.50;;;27.68;22.29
61814;BME280;57055;-35.296;149.168;2023-02-11T08:01:21;93763.19;;;27.60;23.11
61814;BME280;57055;-35.296;149.168;2023-02-11T08:03:52;93768.94;;;27.67;23.92
61814;BME280;57055;-35.296;149.168;2023-02-11T08:06:24;93771.84;;;27.33;22.76
61814;BME280;57055;-35.296;149.168;2023-02-11T08:08:53;93773.99;;;27.64;22.41
61814;BME280;57055;-35.296;149.168;2023-02-11T08:11:23;93776.30;;;27.85;23.36
61814;BME280;57055;-35.296;149.168;2023-02-11T08:13:55;93776.32;;;27.41;23.41
61814;BME280;57055;-35.296;149.168;2023-02-11T08:16:26;93783.52;;;27.56;23.35
61814;BME280;57055;-35.296;149.168;2023-02-11T08:18:57;93783.53;;;27.24;23.19
61814;BME280;57055;-35.296;149.168;2023-02-11T08:21:27;93786.09;;;27.25;24.95
61814;BME280;57055;-35.296;149.168;2023-02-11T08:23:57;93785.85;;;27.04;27.63
61814;BME280;57055;-35.296;149.168;2023-02-11T08:26:27;93788.05;;;27.16;24.01
61814;BME280;57055;-35.296;149.168;2023-02-11T08:28:57;93788.38;;;27.28;24.60
61814;BME280;57055;-35.296;149.168;2023-02-11T08:31:28;93792.78;;;26.86;26.03
61814;BME280;57055;-35.296;149.168;2023-02-11T08:33:58;93797.44;;;26.88;28.69
61814;BME280;57055;-35.296;149.168;2023-02-11T08:36:30;93802.32;;;26.74;26.04
61814;BME280;57055;-35.296;149.168;2023-02-11T08:39:01;93805.02;;;26.34;28.26
61814;BME280;57055;-35.296;149.168;2023-02-11T08:41:31;93804.89;;;26.56;25.95
61814;BME280;57055;-35.296;149.168;2023-02-11T08:44:00;93810.29;;;26.73;24.57
61814;BME280;57055;-35.296;149.168;2023-02-11T08:46:30;93808.16;;;26.58;24.49
61814;BME280;57055;-35.296;149.168;2023-02-11T08:48:59;93812.62;;;26.61;24.23
61814;BME280;57055;-35.296;149.168;2023-02-11T08:51:29;93815.19;;;26.63;23.81
61814;BME280;57055;-35.296;149.168;2023-02-11T08:53:59;93816.98;;;26.75;23.36
61814;BME280;57055;-35.296;149.168;2023-02-11T08:56:28;93825.49;;;26.85;23.94
61814;BME280;57055;-35.296;149.168;2023-02-11T08:58:57;93828.68;;;26.46;23.98
61814;BME280;57055;-35.296;149.168;2023-02-11T09:01:28;93836.22;;;26.42;24.10
61814;BME280;57055;-35.296;149.168;2023-02-11T09:03:58;93835.59;;;26.37;24.28
61814;BME280;57055;-35.296;149.168;2023-02-11T09:06:28;93836.45;;;26.24;24.79
61814;BME280;57055;-35.296;149.168;2023-02-11T09:08:57;93838.49;;;26.14;25.32
61814;BME280;57055;-35.296;149.168;2023-02-11T09:11:29;93842.46;;;26.24;25.84
61814;BME280;57055;-35.296;149.168;2023-02-11T09:13:59;93844.78;;;26.04;26.97
61814;BME280;57055;-35.296;149.168;2023-02-11T09:16:29;93847.44;;;25.94;27.61
61814;BME280;57055;-35.296;149.168;2023-02-11T09:19:00;93848.35;;;25.83;27.41
61814;BME280;57055;-35.296;149.168;2023-02-11T09:21:30;93850.79;;;25.65;28.03
61814;BME280;57055;-35.296;149.168;2023-02-11T09:23:59;93852.82;;;25.67;28.41
61814;BME280;57055;-35.296;149.168;2023-02-11T09:26:30;93859.58;;;25.46;28.74
61814;BME280;57055;-35.296;149.168;2023-02-11T09:28:59;93863.28;;;25.51;28.92
61814;BME280;57055;-35.296;149.168;2023-02-11T09:31:30;93867.21;;;25.19;28.96
61814;BME280;57055;-35.296;149.168;2023-02-11T09:34:00;93870.69;;;25.08;29.14
61814;BME280;57055;-35.296;149.168;2023-02-11T09:36:32;93870.61;;;24.73;29.34
61814;BME280;57055;-35.296;149.168;2023-02-11T09:39:05;93867.38;;;25.08;29.71
61814;BME280;57055;-35.296;149.168;2023-02-11T09:42:52;93868.00;;;25.00;30.23
61814;BME280;57055;-35.296;149.168;2023-02-11T09:45:25;93868.28;;;24.80;30.76
61814;BME280;57055;-35.296;149.168;2023-02-11T09:47:57;93869.33;;;24.57;31.29
61814;BME280;57055;-35.296;149.168;2023-02-11T09:50:32;93869.30;;;24.54;31.31
61814;BME280;57055;-35.296;149.168;2023-02-11T09:53:03;93868.64;;;24.51;31.35
61814;BME280;57055;-35.296;149.168;2023-02-11T09:55:34;93868.53;;;24.68;31.59
61814;BME280;57055;-35.296;149.168;2023-02-11T09:58:09;93870.56;;;24.55;31.46
61814;BME280;57055;-35.296;149.168;2023-02-11T10:00:42;93871.91;;;24.23;31.16
61814;BME280;57055;-35.296;149.168;2023-02-11T10:03:30;93869.46;;;24.21;31.32
61814;BME280;57055;-35.296;149.168;2023-02-11T10:06:21;93874.56;;;24.14;31.30
61814;BME280;57055;-35.296;149.168;2023-02-11T10:09:02;93871.49;;;24.36;31.47
61814;BME280;57055;-35.296;149.168;2023-02-11T10:11:43;93872.30;;;24.33;31.58
61814;BME280;57055;-35.296;149.168;2023-02-11T10:14:30;93873.24;;;24.04;31.68
61814;BME280;57055;-35.296;149.168;2023-02-11T10:17:11;93872.98;;;24.01;31.76
61814;BME280;57055;-35.296;149.168;2023-02-11T10:19:55;93874.46;;;24.44;31.78
61814;BME280;57055;-35.296;149.168;2023-02-11T10:22:34;93877.26;;;24.24;31.73
61814;BME280;57055;-35.296;149.168;2023-02-11T10:25:19;93876.87;;;24.20;31.82
61814;BME280;57055;-35.296;149.168;2023-02-11T10:27:49;93875.49;;;24.19;31.77
61814;BME280;57055;-35.296;149.168;2023-02-11T10:30:24;93873.09;;;24.14;31.88
61814;BME280;57055;-35.296;149.168;2023-02-11T10:32:58;93879.03;;;24.06;32.03
61814;BME280;57055;-35.296;149.168;2023-02-11T10:35:31;93876.80;;;24.26;32.12
61814;BME280;57055;-35.296;149.168;2023-02-11T10:38:00;93879.65;;;24.27;31.88
61814;BME280;57055;-35.296;149.168;2023-02-11T10:40:31;93883.27;;;23.75;31.93
61814;BME280;57055;-35.296;149.168;2023-02-11T10:43:03;93884.08;;;24.18;32.03
61814;BME280;57055;-35.296;149.168;2023-02-11T10:45:36;93889.17;;;24.05;32.70
61814;BME280;57055;-35.296;149.168;2023-02-11T10:48:39;93893.27;;;23.75;33.13
61814;BME280;57055;-35.296;149.168;2023-02-11T10:51:17;93897.55;;;23.83;33.61
61814;BME280;57055;-35.296;149.168;2023-02-11T10:53:48;93901.74;;;23.74;34.07
61814;BME280;57055;-35.296;149.168;2023-02-11T10:56:22;93899.02;;;23.51;34.05
61814;BME280;57055;-35.296;149.168;2023-02-11T10:58:58;93900.22;;;23.68;34.26
61814;BME280;57055;-35.296;149.168;2023-02-11T11:01:47;93907.04;;;23.43;34.52
61814;BME280;57055;-35.296;149.168;2023-02-11T11:04:47;93905.92;;;23.48;35.14
61814;BME280;57055;-35.296;149.168;2023-02-11T11:07:19;93905.81;;;23.22;35.34
61814;BME280;57055;-35.296;149.168;2023-02-11T11:09:52;93904.58;;;23.25;35.41
61814;BME280;57055;-35.296;149.168;2023-02-11T11:12:32;93901.95;;;22.99;35.21
61814;BME280;57055;-35.296;149.168;2023-02-11T11:15:14;93912.01;;;22.80;35.92
61814;BME280;57055;-35.296;149.168;2023-02-11T11:17:44;93910.50;;;22.65;35.94
61814;BME280;57055;-35.296;149.168;2023-02-11T11:20:21;93913.25;;;22.82;36.29
61814;BME280;57055;-35.296;149.168;2023-02-11T11:22:53;93913.63;;;22.60;36.19
61814;BME280;57055;-35.296;149.168;2023-02-11T11:25:37;93910.40;;;22.30;36.41
61814;BME280;57055;-35.296;149.168;2023-02-11T11:28:19;93908.20;;;22.46;36.89
61814;BME280;57055;-35.296;149.168;2023-02-11T11:30:49;93908.64;;;22.22;37.49
61814;BME280;57055;-35.296;149.168;2023-02-11T11:33:22;93904.31;;;22.28;38.12
61814;BME280;57055;-35.296;149.168;2023-02-11T11:36:10;93902.03;;;22.25;37.89
61814;BME280;57055;-35.296;149.168;2023-02-11T11:38:45;93905.50;;;22.37;37.82
61814;BME280;57055;-35.296;149.168;2023-02-11T11:41:21;93904.31;;;22.66;37.07
61814;BME280;57055;-35.296;149.168;2023-02-11T11:44:01;93904.00;;;22.85;36.78
61814;BME280;57055;-35.296;149.168;2023-02-11T11:46:33;93904.72;;;23.05;36.64
61814;BME280;57055;-35.296;149.168;2023-02-11T11:49:16;93904.05;;;23.27;35.76
61814;BME280;57055;-35.296;149.168;2023-02-11T11:51:55;93901.86;;;23.25;35.55
61814;BME280;57055;-35.296;149.168;2023-02-11T11:54:28;93906.06;;;23.12;34.93
61814;BME280;57055;-35.296;149.168;2023-02-11T11:57:02;93909.50;;;23.21;34.62
61814;BME280;57055;-35.296;149.168;2023-02-11T11:59:33;93913.11;;;23.26;34.70
61814;BME280;57055;-35.296;149.168;2023-02-11T12:02:18;93911.02;;;23.52;34.76
61814;BME280;57055;-35.296;149.168;2023-02-11T12:05:00;93911.47;;;23.30;34.62
61814;BME280;57055;-35.296;149.168;2023-02-11T12:07:43;93910.93;;;23.21;34.76
61814;BME280;57055;-35.296;149.168;2023-02-11T12:10:28;93913.22;;;23.05;35.02
61814;BME280;57055;-35.296;149.168;2023-02-11T12:13:07;93912.54;;;23.26;35.23
61814;BME280;57055;-35.296;149.168;2023-02-11T12:15:48;93913.83;;;22.94;35.46
61814;BME280;57055;-35.296;149.168;2023-02-11T12:18:35;93916.84;;;22.85;35.66
61814;BME280;57055;-35.296;149.168;2023-02-11T12:21:18;93917.86;;;22.86;35.63
61814;BME280;57055;-35.296;149.168;2023-02-11T12:24:04;93920.96;;;22.77;35.87
61814;BME280;57055;-35.296;149.168;2023-02-11T12:26:40;93927.89;;;22.70;35.83
61814;BME280;57055;-35.296;149.168;2023-02-11T12:29:22;93926.69;;;22.81;36.03
61814;BME280;57055;-35.296;149.168;2023-02-11T12:32:09;93926.14;;;22.47;36.22
61814;BME280;57055;-35.296;149.168;2023-02-11T12:35:29;93923.62;;;22.62;36.63
61814;BME280;57055;-35.296;149.168;2023-02-11T12:38:15;93925.53;;;22.70;36.86
61814;BME280;57055;-35.296;149.168;2023-02-11T12:40:56;93923.53;;;22.55;37.14
61814;BME280;57055;-35.296;149.168;2023-02-11T12:43:35;93923.14;;;22.45;37.28
61814;BME280;57055;-35.296;149.168;2023-02-11T12:46:17;93922.76;;;22.18;37.46
61814;BME280;57055;-35.296;149.168;2023-02-11T12:49:03;93922.21;;;22.37;37.71
61814;BME280;57055;-35.296;149.168;2023-02-11T12:52:03;93925.93;;;22.32;37.79
61814;BME280;57055;-35.296;149.168;2023-02-11T12:54:40;93916.92;;;22.36;37.77
61814;BME280;57055;-35.296;149.168;2023-02-11T12:57:17;93914.18;;;22.39;37.68
61814;BME280;57055;-35.296;149.168;2023-02-11T12:59:53;93912.70;;;22.37;37.65
61814;BME280;57055;-35.296;149.168;2023-02-11T13:02:31;93914.61;;;22.36;37.62